sensor_id;sensor_type;location;lat;lon;timestamp;P1;durP1;ratioP1;P2;durP2;ratioP2
62880;SDS011;48969;49.934;8.596;2022-08-05T00:00:16;18.77;;;3.10;;
62880;SDS011;48969;49.934;8.596;2022-08-05T00:02:42;8.70;;;2.90;;
62880;SDS011;48969;49.934;8.596;2022-08-05T00:05:08;12.85;;;3.05;;
62880;SDS011;48969;49.934;8.596;2022-08-05T00:07:33;4.77;;;2.60;;
62880;SDS011;48969;49.934;8.596;2022-08-05T00:09:58;13.90;;;2.77;;
62880;SDS011;48969;49.934;8.596;2022-08-05T00:12:23;7.35;;;3.03;;
62880;SDS011;48969;49.934;8.596;2022-08-05T00:14:48;8.35;;;2.83;;
62880;SDS011;48969;49.934;8.596;2022-08-05T00:17:14;13.43;;;3.63;;
62880;SDS011;48969;49.934;8.596;2022-08-05T00:19:39;13.13;;;3.63;;
62880;SDS011;48969;49.934;8.596;2022-08-05T00:22:04;6.57;;;3.37;;
62880;SDS011;48969;49.934;8.596;2022-08-05T00:24:29;8.33;;;3.93;;
62880;SDS011;48969;49.934;8.596;2022-08-05T00:26:54;12.77;;;4.00;;
62880;SDS011;48969;49.934;8.596;2022-08-05T00:29:20;13.23;;;4.37;;
62880;SDS011;48969;49.934;8.596;2022-08-05T00:31:46;6.82;;;4.28;;
62880;SDS011;48969;49.934;8.596;2022-08-05T00:34:11;6.38;;;3.75;;
62880;SDS011;48969;49.934;8.596;2022-08-05T00:36:36;8.10;;;4.80;;
62880;SDS011;48969;49.934;8.596;2022-08-05T00:39:01;12.23;;;4.57;;
62880;SDS011;48969;49.934;8.596;2022-08-05T00:41:27;9.63;;;4.13;;
62880;SDS011;48969;49.934;8.596;2022-08-05T00:43:53;7.60;;;3.63;;
62880;SDS011;48969;49.934;8.596;2022-08-05T00:46:18;9.48;;;4.55;;
62880;SDS011;48969;49.934;8.596;2022-08-05T00:48:43;7.28;;;4.40;;
62880;SDS011;48969;49.934;8.596;2022-08-05T00:51:09;8.27;;;4.40;;
62880;SDS011;48969;49.934;8.596;2022-08-05T00:53:34;8.33;;;3.97;;
62880;SDS011;48969;49.934;8.596;2022-08-05T00:55:59;10.07;;;4.37;;
62880;SDS011;48969;49.934;8.596;2022-08-05T00:58:24;6.90;;;3.75;;
62880;SDS011;48969;49.934;8.596;2022-08-05T01:00:49;12.67;;;4.23;;
62880;SDS011;48969;49.934;8.596;2022-08-05T01:03:14;8.93;;;4.18;;
62880;SDS011;48969;49.934;8.596;2022-08-05T01:05:40;8.70;;;3.92;;
62880;SDS011;48969;49.934;8.596;2022-08-05T01:08:05;6.85;;;3.88;;
62880;SDS011;48969;49.934;8.596;2022-08-05T01:10:34;6.85;;;3.40;;
62880;SDS011;48969;49.934;8.596;2022-08-05T01:13:03;7.05;;;3.25;;
62880;SDS011;48969;49.934;8.596;2022-08-05T01:15:31;6.07;;;3.50;;
62880;SDS011;48969;49.934;8.596;2022-08-05T01:18:05;9.52;;;3.75;;
62880;SDS011;48969;49.934;8.596;2022-08-05T01:20:36;5.82;;;3.17;;
62880;SDS011;48969;49.934;8.596;2022-08-05T01:23:27;6.78;;;3.40;;
62880;SDS011;48969;49.934;8.596;2022-08-05T01:26:00;5.70;;;3.00;;
62880;SDS011;48969;49.934;8.596;2022-08-05T01:28:37;4.53;;;3.35;;
62880;SDS011;48969;49.934;8.596;2022-08-05T01:31:11;4.55;;;2.70;;
62880;SDS011;48969;49.934;8.596;2022-08-05T01:36:31;3.42;;;2.50;;
62880;SDS011;48969;49.934;8.596;2022-08-05T01:38:58;4.43;;;2.92;;
62880;SDS011;48969;49.934;8.596;2022-08-05T01:41:24;5.55;;;2.75;;
62880;SDS011;48969;49.934;8.596;2022-08-05T01:43:50;3.70;;;2.60;;
62880;SDS011;48969;49.934;8.596;2022-08-05T01:46:15;5.45;;;2.70;;
62880;SDS011;48969;49.934;8.596;2022-08-05T01:48:41;5.30;;;3.00;;
62880;SDS011;48969;49.934;8.596;2022-08-05T01:51:07;2.95;;;2.25;;
62880;SDS011;48969;49.934;8.596;2022-08-05T01:53:33;6.63;;;2.85;;
62880;SDS011;48969;49.934;8.596;2022-08-05T01:55:59;5.85;;;2.50;;
62880;SDS011;48969;49.934;8.596;2022-08-05T01:58:25;6.05;;;2.45;;
62880;SDS011;48969;49.934;8.596;2022-08-05T02:00:51;9.25;;;3.15;;
62880;SDS011;48969;49.934;8.596;2022-08-05T02:03:22;7.70;;;2.90;;
62880;SDS011;48969;49.934;8.596;2022-08-05T02:05:48;5.57;;;2.75;;
62880;SDS011;48969;49.934;8.596;2022-08-05T02:08:14;7.28;;;2.90;;
62880;SDS011;48969;49.934;8.596;2022-08-05T02:10:43;4.88;;;2.92;;
62880;SDS011;48969;49.934;8.596;2022-08-05T02:13:13;4.97;;;2.83;;
62880;SDS011;48969;49.934;8.596;2022-08-05T02:15:43;6.93;;;3.75;;
62880;SDS011;48969;49.934;8.596;2022-08-05T02:18:19;6.35;;;3.17;;
62880;SDS011;48969;49.934;8.596;2022-08-05T02:20:46;7.57;;;3.22;;
62880;SDS011;48969;49.934;8.596;2022-08-05T02:23:12;10.00;;;2.92;;
62880;SDS011;48969;49.934;8.596;2022-08-05T02:25:39;5.22;;;3.13;;
62880;SDS011;48969;49.934;8.596;2022-08-05T02:28:05;6.28;;;2.70;;
62880;SDS011;48969;49.934;8.596;2022-08-05T02:30:34;5.40;;;2.58;;
62880;SDS011;48969;49.934;8.596;2022-08-05T02:33:01;3.45;;;2.60;;
62880;SDS011;48969;49.934;8.596;2022-08-05T02:35:28;5.93;;;2.67;;
62880;SDS011;48969;49.934;8.596;2022-08-05T02:37:56;5.60;;;2.95;;
62880;SDS011;48969;49.934;8.596;2022-08-05T02:40:21;5.40;;;2.97;;
62880;SDS011;48969;49.934;8.596;2022-08-05T02:42:48;4.85;;;3.08;;
62880;SDS011;48969;49.934;8.596;2022-08-05T02:45:13;4.53;;;2.67;;
62880;SDS011;48969;49.934;8.596;2022-08-05T02:47:40;4.00;;;2.90;;
62880;SDS011;48969;49.934;8.596;2022-08-05T02:50:05;5.07;;;2.43;;
62880;SDS011;48969;49.934;8.596;2022-08-05T02:52:31;4.65;;;2.60;;
62880;SDS011;48969;49.934;8.596;2022-08-05T02:55:00;7.57;;;2.88;;
62880;SDS011;48969;49.934;8.596;2022-08-05T02:57:26;5.05;;;3.42;;
62880;SDS011;48969;49.934;8.596;2022-08-05T02:59:51;8.65;;;3.13;;
62880;SDS011;48969;49.934;8.596;2022-08-05T03:02:18;4.50;;;3.00;;
62880;SDS011;48969;49.934;8.596;2022-08-05T03:04:44;3.95;;;3.20;;
62880;SDS011;48969;49.934;8.596;2022-08-05T03:07:10;6.03;;;3.70;;
62880;SDS011;48969;49.934;8.596;2022-08-05T03:09:35;10.80;;;3.88;;
62880;SDS011;48969;49.934;8.596;2022-08-05T03:12:00;5.07;;;3.58;;
62880;SDS011;48969;49.934;8.596;2022-08-05T03:14:26;8.30;;;4.13;;
62880;SDS011;48969;49.934;8.596;2022-08-05T03:16:51;6.60;;;3.60;;
62880;SDS011;48969;49.934;8.596;2022-08-05T03:19:16;3.83;;;3.40;;
62880;SDS011;48969;49.934;8.596;2022-08-05T03:21:41;7.45;;;4.30;;
62880;SDS011;48969;49.934;8.596;2022-08-05T03:24:06;6.80;;;4.07;;
62880;SDS011;48969;49.934;8.596;2022-08-05T03:26:32;6.88;;;4.05;;
62880;SDS011;48969;49.934;8.596;2022-08-05T03:28:58;5.33;;;3.90;;
62880;SDS011;48969;49.934;8.596;2022-08-05T03:31:23;8.38;;;4.32;;
62880;SDS011;48969;49.934;8.596;2022-08-05T03:33:49;10.02;;;4.50;;
62880;SDS011;48969;49.934;8.596;2022-08-05T03:36:15;47.35;;;13.00;;
62880;SDS011;48969;49.934;8.596;2022-08-05T03:38:40;14.10;;;5.72;;
62880;SDS011;48969;49.934;8.596;2022-08-05T03:41:08;13.13;;;5.75;;
62880;SDS011;48969;49.934;8.596;2022-08-05T03:43:34;9.87;;;4.70;;
62880;SDS011;48969;49.934;8.596;2022-08-05T03:45:59;8.30;;;4.53;;
62880;SDS011;48969;49.934;8.596;2022-08-05T03:48:25;8.57;;;4.97;;
62880;SDS011;48969;49.934;8.596;2022-08-05T03:50:52;10.18;;;5.40;;
62880;SDS011;48969;49.934;8.596;2022-08-05T03:53:27;8.65;;;4.38;;
62880;SDS011;48969;49.934;8.596;2022-08-05T03:55:59;6.50;;;4.22;;
62880;SDS011;48969;49.934;8.596;2022-08-05T03:58:26;6.78;;;4.95;;
62880;SDS011;48969;49.934;8.596;2022-08-05T04:00:54;7.95;;;4.70;;
62880;SDS011;48969;49.934;8.596;2022-08-05T04:03:21;8.48;;;4.97;;
62880;SDS011;48969;49.934;8.596;2022-08-05T04:05:46;6.07;;;4.18;;
62880;SDS011;48969;49.934;8.596;2022-08-05T04:08:12;6.43;;;4.43;;
62880;SDS011;48969;49.934;8.596;2022-08-05T04:10:37;7.28;;;4.80;;
62880;SDS011;48969;49.934;8.596;2022-08-05T04:13:03;6.50;;;4.45;;
62880;SDS011;48969;49.934;8.596;2022-08-05T04:15:28;5.13;;;3.85;;
62880;SDS011;48969;49.934;8.596;2022-08-05T04:17:53;8.75;;;4.22;;
62880;SDS011;48969;49.934;8.596;2022-08-05T04:20:19;5.38;;;4.10;;
62880;SDS011;48969;49.934;8.596;2022-08-05T04:22:45;7.78;;;4.35;;
62880;SDS011;48969;49.934;8.596;2022-08-05T04:25:10;4.22;;;3.83;;
62880;SDS011;48969;49.934;8.596;2022-08-05T04:27:36;7.70;;;4.17;;
62880;SDS011;48969;49.934;8.596;2022-08-05T04:30:01;5.22;;;4.30;;
62880;SDS011;48969;49.934;8.596;2022-08-05T04:32:26;6.67;;;4.17;;
62880;SDS011;48969;49.934;8.596;2022-08-05T04:34:51;5.93;;;3.72;;
62880;SDS011;48969;49.934;8.596;2022-08-05T04:37:16;5.80;;;4.18;;
62880;SDS011;48969;49.934;8.596;2022-08-05T04:39:41;5.17;;;4.23;;
62880;SDS011;48969;49.934;8.596;2022-08-05T04:42:07;7.40;;;4.17;;
62880;SDS011;48969;49.934;8.596;2022-08-05T04:44:32;5.25;;;4.75;;
62880;SDS011;48969;49.934;8.596;2022-08-05T04:46:57;6.85;;;4.60;;
62880;SDS011;48969;49.934;8.596;2022-08-05T04:49:23;8.25;;;4.70;;
62880;SDS011;48969;49.934;8.596;2022-08-05T04:51:48;5.78;;;4.20;;
62880;SDS011;48969;49.934;8.596;2022-08-05T04:54:13;6.70;;;4.47;;
62880;SDS011;48969;49.934;8.596;2022-08-05T04:56:38;6.70;;;4.32;;
62880;SDS011;48969;49.934;8.596;2022-08-05T04:59:03;7.30;;;4.65;;
62880;SDS011;48969;49.934;8.596;2022-08-05T05:01:29;8.95;;;4.97;;
62880;SDS011;48969;49.934;8.596;2022-08-05T05:03:54;8.35;;;5.38;;
62880;SDS011;48969;49.934;8.596;2022-08-05T05:06:19;6.57;;;5.10;;
62880;SDS011;48969;49.934;8.596;2022-08-05T05:08:44;8.07;;;4.93;;
62880;SDS011;48969;49.934;8.596;2022-08-05T05:11:09;6.67;;;4.50;;
62880;SDS011;48969;49.934;8.596;2022-08-05T05:13:35;6.00;;;5.05;;
62880;SDS011;48969;49.934;8.596;2022-08-05T05:16:00;6.83;;;4.77;;
62880;SDS011;48969;49.934;8.596;2022-08-05T05:18:25;7.60;;;5.30;;
62880;SDS011;48969;49.934;8.596;2022-08-05T05:20:50;9.50;;;5.20;;
62880;SDS011;48969;49.934;8.596;2022-08-05T05:23:15;8.40;;;5.72;;
62880;SDS011;48969;49.934;8.596;2022-08-05T05:25:41;7.13;;;5.53;;
62880;SDS011;48969;49.934;8.596;2022-08-05T05:28:06;7.13;;;5.13;;
62880;SDS011;48969;49.934;8.596;2022-08-05T05:30:32;7.28;;;5.88;;
62880;SDS011;48969;49.934;8.596;2022-08-05T05:33:01;9.90;;;5.55;;
62880;SDS011;48969;49.934;8.596;2022-08-05T05:35:27;10.57;;;6.15;;
62880;SDS011;48969;49.934;8.596;2022-08-05T05:37:53;10.65;;;5.22;;
62880;SDS011;48969;49.934;8.596;2022-08-05T05:40:19;8.98;;;5.47;;
62880;SDS011;48969;49.934;8.596;2022-08-05T05:42:45;12.75;;;5.22;;
62880;SDS011;48969;49.934;8.596;2022-08-05T05:45:10;8.10;;;5.20;;
62880;SDS011;48969;49.934;8.596;2022-08-05T05:47:35;8.50;;;5.43;;
62880;SDS011;48969;49.934;8.596;2022-08-05T05:50:01;10.67;;;6.07;;
62880;SDS011;48969;49.934;8.596;2022-08-05T05:52:26;13.35;;;6.43;;
62880;SDS011;48969;49.934;8.596;2022-08-05T05:54:51;12.70;;;5.97;;
62880;SDS011;48969;49.934;8.596;2022-08-05T05:57:16;6.50;;;5.87;;
62880;SDS011;48969;49.934;8.596;2022-08-05T05:59:41;7.33;;;5.00;;
62880;SDS011;48969;49.934;8.596;2022-08-05T06:02:06;10.00;;;5.28;;
62880;SDS011;48969;49.934;8.596;2022-08-05T06:04:32;7.13;;;5.43;;
62880;SDS011;48969;49.934;8.596;2022-08-05T06:06:57;6.13;;;4.60;;
62880;SDS011;48969;49.934;8.596;2022-08-05T06:09:22;8.07;;;5.10;;
62880;SDS011;48969;49.934;8.596;2022-08-05T06:11:47;6.20;;;4.70;;
62880;SDS011;48969;49.934;8.596;2022-08-05T06:14:12;9.57;;;4.53;;
62880;SDS011;48969;49.934;8.596;2022-08-05T06:16:37;7.03;;;4.73;;
62880;SDS011;48969;49.934;8.596;2022-08-05T06:19:03;5.70;;;4.53;;
62880;SDS011;48969;49.934;8.596;2022-08-05T06:21:28;6.40;;;4.32;;
62880;SDS011;48969;49.934;8.596;2022-08-05T06:23:57;7.65;;;4.30;;
62880;SDS011;48969;49.934;8.596;2022-08-05T06:26:22;9.48;;;4.63;;
62880;SDS011;48969;49.934;8.596;2022-08-05T06:28:47;6.60;;;4.60;;
62880;SDS011;48969;49.934;8.596;2022-08-05T06:31:12;8.02;;;5.25;;
62880;SDS011;48969;49.934;8.596;2022-08-05T06:33:37;5.93;;;4.80;;
62880;SDS011;48969;49.934;8.596;2022-08-05T06:36:02;9.17;;;5.03;;
62880;SDS011;48969;49.934;8.596;2022-08-05T06:38:28;7.50;;;4.32;;
62880;SDS011;48969;49.934;8.596;2022-08-05T06:40:53;7.25;;;4.70;;
62880;SDS011;48969;49.934;8.596;2022-08-05T06:43:18;9.00;;;4.63;;
62880;SDS011;48969;49.934;8.596;2022-08-05T06:45:43;5.60;;;4.35;;
62880;SDS011;48969;49.934;8.596;2022-08-05T06:48:08;6.63;;;4.47;;
62880;SDS011;48969;49.934;8.596;2022-08-05T06:50:34;8.03;;;4.37;;
62880;SDS011;48969;49.934;8.596;2022-08-05T06:52:59;7.97;;;5.00;;
62880;SDS011;48969;49.934;8.596;2022-08-05T06:55:24;7.00;;;4.85;;
62880;SDS011;48969;49.934;8.596;2022-08-05T06:57:49;4.43;;;3.55;;
62880;SDS011;48969;49.934;8.596;2022-08-05T07:00:14;8.30;;;5.03;;
62880;SDS011;48969;49.934;8.596;2022-08-05T07:02:42;7.63;;;5.80;;
62880;SDS011;48969;49.934;8.596;2022-08-05T07:05:08;9.80;;;4.35;;
62880;SDS011;48969;49.934;8.596;2022-08-05T07:07:33;8.35;;;5.18;;
62880;SDS011;48969;49.934;8.596;2022-08-05T07:09:58;6.43;;;4.47;;
62880;SDS011;48969;49.934;8.596;2022-08-05T07:12:23;12.82;;;4.82;;
62880;SDS011;48969;49.934;8.596;2022-08-05T07:15:07;21.35;;;7.18;;
62880;SDS011;48969;49.934;8.596;2022-08-05T07:17:51;6.97;;;5.07;;
62880;SDS011;48969;49.934;8.596;2022-08-05T07:20:17;6.53;;;3.97;;
62880;SDS011;48969;49.934;8.596;2022-08-05T07:22:42;7.30;;;4.33;;
62880;SDS011;48969;49.934;8.596;2022-08-05T07:25:07;8.00;;;4.95;;
62880;SDS011;48969;49.934;8.596;2022-08-05T07:27:32;5.18;;;4.05;;
62880;SDS011;48969;49.934;8.596;2022-08-05T07:29:57;7.88;;;4.38;;
62880;SDS011;48969;49.934;8.596;2022-08-05T07:32:24;4.67;;;3.97;;
62880;SDS011;48969;49.934;8.596;2022-08-05T07:34:49;6.20;;;4.30;;
62880;SDS011;48969;49.934;8.596;2022-08-05T07:37:14;6.10;;;4.00;;
62880;SDS011;48969;49.934;8.596;2022-08-05T07:39:39;6.68;;;4.45;;
62880;SDS011;48969;49.934;8.596;2022-08-05T07:42:05;7.70;;;4.60;;
62880;SDS011;48969;49.934;8.596;2022-08-05T07:44:30;9.73;;;4.80;;
62880;SDS011;48969;49.934;8.596;2022-08-05T07:46:55;8.10;;;4.32;;
62880;SDS011;48969;49.934;8.596;2022-08-05T07:49:20;10.23;;;4.83;;
62880;SDS011;48969;49.934;8.596;2022-08-05T07:51:45;86.40;;;15.13;;
62880;SDS011;48969;49.934;8.596;2022-08-05T07:54:10;27.15;;;8.85;;
62880;SDS011;48969;49.934;8.596;2022-08-05T07:56:36;6.45;;;4.38;;
62880;SDS011;48969;49.934;8.596;2022-08-05T07:59:02;34.78;;;8.75;;
62880;SDS011;48969;49.934;8.596;2022-08-05T08:01:27;16.03;;;5.70;;
62880;SDS011;48969;49.934;8.596;2022-08-05T08:03:52;11.23;;;4.30;;
62880;SDS011;48969;49.934;8.596;2022-08-05T08:06:17;10.23;;;4.45;;
62880;SDS011;48969;49.934;8.596;2022-08-05T08:08:42;7.93;;;4.60;;
62880;SDS011;48969;49.934;8.596;2022-08-05T08:11:07;5.30;;;3.90;;
62880;SDS011;48969;49.934;8.596;2022-08-05T08:13:33;8.10;;;4.37;;
62880;SDS011;48969;49.934;8.596;2022-08-05T08:15:58;9.73;;;4.80;;
62880;SDS011;48969;49.934;8.596;2022-08-05T08:18:23;8.13;;;3.87;;
62880;SDS011;48969;49.934;8.596;2022-08-05T08:20:48;7.43;;;4.17;;
62880;SDS011;48969;49.934;8.596;2022-08-05T08:23:15;6.10;;;3.50;;
62880;SDS011;48969;49.934;8.596;2022-08-05T08:25:42;5.43;;;3.58;;
62880;SDS011;48969;49.934;8.596;2022-08-05T08:28:07;53.13;;;9.77;;
62880;SDS011;48969;49.934;8.596;2022-08-05T08:30:32;81.27;;;15.70;;
62880;SDS011;48969;49.934;8.596;2022-08-05T08:32:57;68.93;;;12.77;;
62880;SDS011;48969;49.934;8.596;2022-08-05T08:35:23;5.83;;;3.53;;
62880;SDS011;48969;49.934;8.596;2022-08-05T08:37:48;10.55;;;3.97;;
62880;SDS011;48969;49.934;8.596;2022-08-05T08:40:13;11.60;;;4.35;;
62880;SDS011;48969;49.934;8.596;2022-08-05T08:42:39;6.60;;;3.87;;
62880;SDS011;48969;49.934;8.596;2022-08-05T08:45:04;5.38;;;4.00;;
62880;SDS011;48969;49.934;8.596;2022-08-05T08:47:30;6.75;;;4.10;;
62880;SDS011;48969;49.934;8.596;2022-08-05T08:49:56;8.90;;;4.57;;
62880;SDS011;48969;49.934;8.596;2022-08-05T08:52:25;5.43;;;4.13;;
62880;SDS011;48969;49.934;8.596;2022-08-05T08:54:53;6.65;;;4.03;;
62880;SDS011;48969;49.934;8.596;2022-08-05T08:57:18;5.18;;;3.40;;
62880;SDS011;48969;49.934;8.596;2022-08-05T08:59:43;5.68;;;3.90;;
62880;SDS011;48969;49.934;8.596;2022-08-05T09:02:08;5.70;;;3.50;;
62880;SDS011;48969;49.934;8.596;2022-08-05T09:04:35;6.20;;;3.67;;
62880;SDS011;48969;49.934;8.596;2022-08-05T09:07:04;4.95;;;3.25;;
62880;SDS011;48969;49.934;8.596;2022-08-05T09:09:30;4.47;;;3.20;;
62880;SDS011;48969;49.934;8.596;2022-08-05T09:11:55;5.15;;;3.20;;
62880;SDS011;48969;49.934;8.596;2022-08-05T09:14:21;5.25;;;2.92;;
62880;SDS011;48969;49.934;8.596;2022-08-05T09:16:46;4.13;;;2.80;;
62880;SDS011;48969;49.934;8.596;2022-08-05T09:19:11;34.43;;;7.40;;
62880;SDS011;48969;49.934;8.596;2022-08-05T09:21:37;8.60;;;3.63;;
62880;SDS011;48969;49.934;8.596;2022-08-05T09:24:03;4.57;;;3.40;;
62880;SDS011;48969;49.934;8.596;2022-08-05T09:26:29;13.50;;;3.95;;
62880;SDS011;48969;49.934;8.596;2022-08-05T09:28:57;36.10;;;9.30;;
62880;SDS011;48969;49.934;8.596;2022-08-05T09:31:23;7.07;;;2.95;;
62880;SDS011;48969;49.934;8.596;2022-08-05T09:33:58;6.67;;;2.80;;
62880;SDS011;48969;49.934;8.596;2022-08-05T09:36:36;6.10;;;3.72;;
62880;SDS011;48969;49.934;8.596;2022-08-05T09:39:06;6.65;;;3.03;;
62880;SDS011;48969;49.934;8.596;2022-08-05T09:41:32;7.43;;;3.10;;
62880;SDS011;48969;49.934;8.596;2022-08-05T09:43:57;3.83;;;3.20;;
62880;SDS011;48969;49.934;8.596;2022-08-05T09:46:26;9.53;;;2.90;;
62880;SDS011;48969;49.934;8.596;2022-08-05T09:48:52;5.05;;;3.00;;
62880;SDS011;48969;49.934;8.596;2022-08-05T09:51:27;5.80;;;3.08;;
62880;SDS011;48969;49.934;8.596;2022-08-05T09:53:54;6.05;;;3.00;;
62880;SDS011;48969;49.934;8.596;2022-08-05T09:56:26;5.32;;;3.30;;
62880;SDS011;48969;49.934;8.596;2022-08-05T09:58:55;4.50;;;2.75;;
62880;SDS011;48969;49.934;8.596;2022-08-05T10:01:21;3.38;;;3.08;;
62880;SDS011;48969;49.934;8.596;2022-08-05T10:03:56;6.50;;;3.70;;
62880;SDS011;48969;49.934;8.596;2022-08-05T10:06:24;4.43;;;3.13;;
62880;SDS011;48969;49.934;8.596;2022-08-05T10:08:49;5.03;;;2.85;;
62880;SDS011;48969;49.934;8.596;2022-08-05T10:11:15;4.43;;;2.97;;
62880;SDS011;48969;49.934;8.596;2022-08-05T10:13:40;4.90;;;3.22;;
62880;SDS011;48969;49.934;8.596;2022-08-05T10:16:06;3.55;;;2.83;;
62880;SDS011;48969;49.934;8.596;2022-08-05T10:18:50;4.57;;;3.10;;
62880;SDS011;48969;49.934;8.596;2022-08-05T10:21:16;3.15;;;2.85;;
62880;SDS011;48969;49.934;8.596;2022-08-05T10:23:41;3.13;;;2.80;;
62880;SDS011;48969;49.934;8.596;2022-08-05T10:26:08;8.13;;;3.58;;
62880;SDS011;48969;49.934;8.596;2022-08-05T10:28:34;3.83;;;3.05;;
62880;SDS011;48969;49.934;8.596;2022-08-05T10:31:00;5.38;;;3.50;;
62880;SDS011;48969;49.934;8.596;2022-08-05T10:33:27;7.40;;;3.22;;
62880;SDS011;48969;49.934;8.596;2022-08-05T10:35:53;4.35;;;2.85;;
62880;SDS011;48969;49.934;8.596;2022-08-05T10:38:19;5.45;;;3.15;;
62880;SDS011;48969;49.934;8.596;2022-08-05T10:45:38;3.83;;;2.73;;
62880;SDS011;48969;49.934;8.596;2022-08-05T10:51:00;3.28;;;2.90;;
62880;SDS011;48969;49.934;8.596;2022-08-05T10:53:33;7.05;;;2.80;;
62880;SDS011;48969;49.934;8.596;2022-08-05T10:56:11;3.75;;;3.22;;
62880;SDS011;48969;49.934;8.596;2022-08-05T10:59:00;3.33;;;2.78;;
62880;SDS011;48969;49.934;8.596;2022-08-05T11:08:01;4.43;;;2.70;;
62880;SDS011;48969;49.934;8.596;2022-08-05T11:10:27;4.28;;;2.85;;
62880;SDS011;48969;49.934;8.596;2022-08-05T11:13:23;2.85;;;2.55;;
62880;SDS011;48969;49.934;8.596;2022-08-05T11:18:39;5.90;;;3.17;;
62880;SDS011;48969;49.934;8.596;2022-08-05T11:24:14;3.92;;;2.90;;
62880;SDS011;48969;49.934;8.596;2022-08-05T11:26:49;3.42;;;2.80;;
62880;SDS011;48969;49.934;8.596;2022-08-05T11:32:26;4.13;;;2.75;;
62880;SDS011;48969;49.934;8.596;2022-08-05T11:35:02;3.65;;;2.58;;
62880;SDS011;48969;49.934;8.596;2022-08-05T11:37:58;5.05;;;3.20;;
62880;SDS011;48969;49.934;8.596;2022-08-05T11:43:28;4.32;;;2.85;;
62880;SDS011;48969;49.934;8.596;2022-08-05T11:46:11;5.00;;;3.15;;
62880;SDS011;48969;49.934;8.596;2022-08-05T11:54:42;3.83;;;2.80;;
62880;SDS011;48969;49.934;8.596;2022-08-05T11:57:32;4.03;;;2.70;;
62880;SDS011;48969;49.934;8.596;2022-08-05T12:00:04;4.03;;;3.23;;
62880;SDS011;48969;49.934;8.596;2022-08-05T12:02:32;2.80;;;2.60;;
62880;SDS011;48969;49.934;8.596;2022-08-05T12:05:23;3.55;;;2.50;;
62880;SDS011;48969;49.934;8.596;2022-08-05T12:18:01;3.38;;;3.08;;
62880;SDS011;48969;49.934;8.596;2022-08-05T12:20:50;3.83;;;3.03;;
62880;SDS011;48969;49.934;8.596;2022-08-05T12:28:45;5.45;;;3.00;;
62880;SDS011;48969;49.934;8.596;2022-08-05T12:31:20;4.70;;;2.55;;
62880;SDS011;48969;49.934;8.596;2022-08-05T12:33:52;3.50;;;2.88;;
62880;SDS011;48969;49.934;8.596;2022-08-05T12:49:45;6.57;;;3.65;;
62880;SDS011;48969;49.934;8.596;2022-08-05T12:52:31;4.82;;;3.30;;
62880;SDS011;48969;49.934;8.596;2022-08-05T12:55:14;4.93;;;3.55;;
62880;SDS011;48969;49.934;8.596;2022-08-05T13:03:14;3.85;;;3.45;;
62880;SDS011;48969;49.934;8.596;2022-08-05T13:13:44;6.78;;;3.60;;
62880;SDS011;48969;49.934;8.596;2022-08-05T13:16:18;5.25;;;3.47;;
62880;SDS011;48969;49.934;8.596;2022-08-05T13:18:52;4.72;;;3.50;;
62880;SDS011;48969;49.934;8.596;2022-08-05T13:21:43;4.22;;;3.30;;
62880;SDS011;48969;49.934;8.596;2022-08-05T13:24:06;4.55;;;3.40;;
62880;SDS011;48969;49.934;8.596;2022-08-05T13:32:51;3.95;;;3.60;;
62880;SDS011;48969;49.934;8.596;2022-08-05T13:38:18;5.30;;;3.80;;
62880;SDS011;48969;49.934;8.596;2022-08-05T13:40:50;5.40;;;3.83;;
62880;SDS011;48969;49.934;8.596;2022-08-05T13:43:21;5.13;;;4.60;;
62880;SDS011;48969;49.934;8.596;2022-08-05T13:51:53;4.80;;;4.07;;
62880;SDS011;48969;49.934;8.596;2022-08-05T13:57:24;5.03;;;4.47;;
62880;SDS011;48969;49.934;8.596;2022-08-05T14:03:39;6.45;;;4.90;;
62880;SDS011;48969;49.934;8.596;2022-08-05T14:06:10;8.07;;;5.15;;
62880;SDS011;48969;49.934;8.596;2022-08-05T14:18:19;6.78;;;5.43;;
62880;SDS011;48969;49.934;8.596;2022-08-05T14:24:12;7.75;;;6.15;;
62880;SDS011;48969;49.934;8.596;2022-08-05T14:26:46;5.82;;;5.22;;
62880;SDS011;48969;49.934;8.596;2022-08-05T14:29:31;6.57;;;5.97;;
62880;SDS011;48969;49.934;8.596;2022-08-05T14:34:43;7.10;;;6.40;;
62880;SDS011;48969;49.934;8.596;2022-08-05T14:37:21;8.93;;;7.50;;
62880;SDS011;48969;49.934;8.596;2022-08-05T14:40:03;8.95;;;6.88;;
62880;SDS011;48969;49.934;8.596;2022-08-05T14:42:35;8.27;;;7.10;;
62880;SDS011;48969;49.934;8.596;2022-08-05T14:45:00;9.43;;;7.90;;
62880;SDS011;48969;49.934;8.596;2022-08-05T14:56:23;13.27;;;11.88;;
62880;SDS011;48969;49.934;8.596;2022-08-05T14:58:48;12.90;;;11.43;;
62880;SDS011;48969;49.934;8.596;2022-08-05T15:06:35;12.68;;;11.38;;
62880;SDS011;48969;49.934;8.596;2022-08-05T15:09:30;12.57;;;10.88;;
62880;SDS011;48969;49.934;8.596;2022-08-05T15:12:15;13.77;;;12.38;;
62880;SDS011;48969;49.934;8.596;2022-08-05T15:14:43;14.40;;;12.98;;
62880;SDS011;48969;49.934;8.596;2022-08-05T15:23:47;13.60;;;12.30;;
62880;SDS011;48969;49.934;8.596;2022-08-05T15:31:56;14.38;;;12.93;;
62880;SDS011;48969;49.934;8.596;2022-08-05T15:37:52;13.95;;;12.52;;
62880;SDS011;48969;49.934;8.596;2022-08-05T15:40:41;14.20;;;12.75;;
62880;SDS011;48969;49.934;8.596;2022-08-05T15:45:43;14.02;;;12.52;;
62880;SDS011;48969;49.934;8.596;2022-08-05T15:48:12;14.18;;;12.68;;
62880;SDS011;48969;49.934;8.596;2022-08-05T16:03:26;8.88;;;7.97;;
62880;SDS011;48969;49.934;8.596;2022-08-05T16:06:02;10.32;;;7.85;;
62880;SDS011;48969;49.934;8.596;2022-08-05T16:11:47;7.68;;;6.20;;
62880;SDS011;48969;49.934;8.596;2022-08-05T16:14:14;7.33;;;6.37;;
62880;SDS011;48969;49.934;8.596;2022-08-05T16:19:23;6.65;;;5.78;;
62880;SDS011;48969;49.934;8.596;2022-08-05T16:27:31;9.45;;;4.90;;
62880;SDS011;48969;49.934;8.596;2022-08-05T16:30:11;5.65;;;4.10;;
62880;SDS011;48969;49.934;8.596;2022-08-05T16:38:31;4.32;;;3.17;;
62880;SDS011;48969;49.934;8.596;2022-08-05T16:43:33;4.15;;;3.13;;
62880;SDS011;48969;49.934;8.596;2022-08-05T16:57:51;3.95;;;2.47;;
62880;SDS011;48969;49.934;8.596;2022-08-05T17:00:19;4.88;;;2.35;;
62880;SDS011;48969;49.934;8.596;2022-08-05T17:05:34;3.05;;;1.75;;
62880;SDS011;48969;49.934;8.596;2022-08-05T17:08:05;2.15;;;1.60;;
62880;SDS011;48969;49.934;8.596;2022-08-05T17:22:37;1.45;;;1.17;;
62880;SDS011;48969;49.934;8.596;2022-08-05T17:25:11;3.38;;;1.33;;
62880;SDS011;48969;49.934;8.596;2022-08-05T17:27:45;2.22;;;1.25;;
62880;SDS011;48969;49.934;8.596;2022-08-05T17:30:23;2.28;;;1.17;;
62880;SDS011;48969;49.934;8.596;2022-08-05T17:33:09;2.92;;;1.50;;
62880;SDS011;48969;49.934;8.596;2022-08-05T17:46:20;2.28;;;1.10;;
62880;SDS011;48969;49.934;8.596;2022-08-05T17:54:57;1.50;;;0.98;;
62880;SDS011;48969;49.934;8.596;2022-08-05T18:00:41;2.65;;;0.90;;
62880;SDS011;48969;49.934;8.596;2022-08-05T18:03:15;2.50;;;1.00;;
62880;SDS011;48969;49.934;8.596;2022-08-05T18:08:50;1.10;;;1.00;;
62880;SDS011;48969;49.934;8.596;2022-08-05T18:11:23;0.82;;;0.82;;
62880;SDS011;48969;49.934;8.596;2022-08-05T18:13:54;1.70;;;0.93;;
62880;SDS011;48969;49.934;8.596;2022-08-05T18:19:06;1.38;;;0.85;;
62880;SDS011;48969;49.934;8.596;2022-08-05T19:20:13;3.03;;;1.40;;
62880;SDS011;48969;49.934;8.596;2022-08-05T19:25:45;2.38;;;1.40;;
62880;SDS011;48969;49.934;8.596;2022-08-05T19:31:17;1.77;;;1.30;;
62880;SDS011;48969;49.934;8.596;2022-08-05T19:33:51;2.70;;;1.23;;
62880;SDS011;48969;49.934;8.596;2022-08-05T19:36:16;4.43;;;1.40;;
62880;SDS011;48969;49.934;8.596;2022-08-05T19:47:34;2.38;;;1.58;;
62880;SDS011;48969;49.934;8.596;2022-08-05T19:50:12;2.40;;;1.10;;
62880;SDS011;48969;49.934;8.596;2022-08-05T20:01:05;1.45;;;0.98;;
62880;SDS011;48969;49.934;8.596;2022-08-05T20:18:15;2.03;;;1.42;;
62880;SDS011;48969;49.934;8.596;2022-08-05T20:22:04;2.03;;;1.20;;